createdAt,value
2022-12-31T00:00:00.620Z,9.26
2022-12-31T00:05:03.416Z,9.71
2022-12-31T00:10:00.536Z,9.71
2022-12-31T00:15:00.613Z,9.71
2022-12-31T00:20:00.796Z,9.71
2022-12-31T00:25:00.549Z,9.71
2022-12-31T00:30:04.516Z,9.71
2022-12-31T00:35:00.904Z,9.71
2022-12-31T00:40:00.525Z,9.71
2022-12-31T00:45:00.671Z,9.71
2022-12-31T00:50:00.881Z,9.71
2022-12-31T00:55:00.646Z,9.71
2022-12-31T01:00:00.513Z,10.16
2022-12-31T01:05:04.030Z,10.16
2022-12-31T01:10:00.523Z,10.16
2022-12-31T01:15:00.616Z,10.21
2022-12-31T01:20:00.813Z,10.21
2022-12-31T01:25:00.529Z,10.21
2022-12-31T01:30:00.632Z,10.21
2022-12-31T01:35:00.831Z,10.21
2022-12-31T01:40:00.530Z,10.21
2022-12-31T01:45:00.595Z,10.21
2022-12-31T01:50:00.792Z,10.32
2022-12-31T01:55:00.566Z,10.36
2022-12-31T02:00:00.635Z,10.36
2022-12-31T02:05:03.812Z,10.36
2022-12-31T02:10:00.550Z,10.36
2022-12-31T02:15:00.699Z,10.36
2022-12-31T02:20:00.757Z,10.29
2022-12-31T02:25:00.576Z,10.29
2022-12-31T02:30:00.560Z,10.29
2022-12-31T02:35:00.852Z,10.29
2022-12-31T02:45:00.519Z,10.34
2022-12-31T02:50:00.658Z,10.34
2022-12-31T02:55:00.469Z,10.5
2022-12-31T03:00:00.637Z,10.5
2022-12-31T03:05:04.195Z,10.5
2022-12-31T03:10:00.463Z,10.5
2022-12-31T03:15:00.605Z,10.5
2022-12-31T03:20:00.642Z,10.85
2022-12-31T03:25:00.509Z,10.85
2022-12-31T03:30:00.441Z,10.85
2022-12-31T03:35:00.607Z,10.85
2022-12-31T03:40:00.454Z,11.12
2022-12-31T03:45:00.585Z,11.12
2022-12-31T03:50:00.668Z,11.12
2022-12-31T03:55:00.487Z,11.29
2022-12-31T04:00:00.588Z,11.29
2022-12-31T04:05:04.283Z,11.29
2022-12-31T04:10:00.457Z,11.29
2022-12-31T04:15:00.719Z,11.29
2022-12-31T04:20:00.601Z,11.29
2022-12-31T04:25:00.504Z,11.52
2022-12-31T04:30:00.471Z,11.52
2022-12-31T04:35:00.716Z,11.52
2022-12-31T04:40:05.847Z,11.47
2022-12-31T04:45:00.582Z,11.47
2022-12-31T04:50:00.726Z,11.47
2022-12-31T04:55:00.461Z,11.47
2022-12-31T05:00:00.519Z,11.47
2022-12-31T05:05:03.497Z,11.47
2022-12-31T05:10:00.501Z,11.6
2022-12-31T05:15:00.579Z,11.6
2022-12-31T05:20:00.746Z,11.6
2022-12-31T05:25:00.633Z,11.6
2022-12-31T05:30:00.480Z,11.6
2022-12-31T05:35:00.591Z,11.63
2022-12-31T05:40:00.474Z,11.63
2022-12-31T05:45:00.565Z,11.63
2022-12-31T05:50:00.623Z,11.63
2022-12-31T05:55:00.467Z,11.63
2022-12-31T06:00:00.515Z,11.63
2022-12-31T06:05:03.438Z,11.63
2022-12-31T06:10:00.448Z,11.63
2022-12-31T06:15:00.593Z,11.63
2022-12-31T06:20:01.283Z,11.63
2022-12-31T06:25:00.437Z,11.63
2022-12-31T06:30:00.639Z,11.78
2022-12-31T06:35:00.907Z,11.81
2022-12-31T06:40:00.490Z,12.05
2022-12-31T06:45:00.589Z,12.05
2022-12-31T06:50:00.739Z,12.05
2022-12-31T06:55:00.468Z,12.05
2022-12-31T07:00:00.490Z,12.05
2022-12-31T07:05:03.367Z,12.05
2022-12-31T07:10:00.478Z,12.05
2022-12-31T07:15:00.534Z,12.05
2022-12-31T07:20:00.630Z,12.05
2022-12-31T07:25:00.450Z,12.05
2022-12-31T07:30:00.582Z,12.39
2022-12-31T07:35:04.285Z,12.46
2022-12-31T07:40:00.493Z,12.46
2022-12-31T07:45:00.510Z,12.46
2022-12-31T07:50:00.775Z,12.5
2022-12-31T07:55:00.527Z,12.5
2022-12-31T08:00:00.397Z,12.5
2022-12-31T08:05:03.562Z,12.5
2022-12-31T08:10:00.336Z,12.5
2022-12-31T08:15:00.403Z,12.73
2022-12-31T08:20:00.814Z,12.73
2022-12-31T08:25:00.341Z,12.73
2022-12-31T08:30:00.476Z,12.86
2022-12-31T08:35:00.438Z,12.86
2022-12-31T08:40:00.460Z,12.86
2022-12-31T08:45:00.330Z,12.94
2022-12-31T08:50:00.545Z,12.94
2022-12-31T08:55:00.344Z,12.94
2022-12-31T09:00:00.408Z,12.94
2022-12-31T09:05:04.060Z,12.94
2022-12-31T09:10:00.369Z,12.94
2022-12-31T09:15:00.398Z,13.45
2022-12-31T09:20:00.559Z,13.45
2022-12-31T09:25:00.352Z,13.5
2022-12-31T09:30:00.410Z,13.5
2022-12-31T09:35:00.465Z,13.5
2022-12-31T09:40:00.419Z,13.5
2022-12-31T09:45:00.368Z,13.5
2022-12-31T09:50:00.678Z,13.96
2022-12-31T09:55:00.332Z,14.08
2022-12-31T10:00:00.485Z,14.19
2022-12-31T10:05:04.193Z,14.19
2022-12-31T10:10:00.332Z,14.19
2022-12-31T10:15:00.484Z,14.7
2022-12-31T10:20:00.516Z,14.79
2022-12-31T10:25:00.662Z,14.79
2022-12-31T10:30:00.755Z,14.79
2022-12-31T10:35:00.632Z,14.79
2022-12-31T10:40:00.721Z,15.08
2022-12-31T10:45:00.829Z,15.08
2022-12-31T10:50:00.681Z,15.08
2022-12-31T10:55:00.708Z,15.59
2022-12-31T11:00:00.784Z,15.7
2022-12-31T11:05:04.039Z,15.79
2022-12-31T11:10:00.625Z,15.79
2022-12-31T11:15:00.889Z,16.3
2022-12-31T11:20:00.687Z,16.3
2022-12-31T11:25:00.921Z,16.3
2022-12-31T11:30:00.995Z,16.3
2022-12-31T11:35:00.791Z,16.3
2022-12-31T11:40:00.656Z,16.44
2022-12-31T11:45:00.782Z,16.44
2022-12-31T11:50:00.647Z,16.44
2022-12-31T11:55:00.712Z,16.44
2022-12-31T12:00:00.949Z,16.44
2022-12-31T12:05:05.048Z,16.13
2022-12-31T12:10:00.753Z,16.13
2022-12-31T12:15:00.787Z,16.13
2022-12-31T12:20:01.099Z,16.1
2022-12-31T12:25:00.635Z,16.08
2022-12-31T12:30:00.904Z,16.08
2022-12-31T12:35:00.647Z,16.08
2022-12-31T12:40:00.711Z,16.59
2022-12-31T12:45:00.905Z,16.59
2022-12-31T12:50:00.667Z,16.59
2022-12-31T12:55:00.797Z,16.59
2022-12-31T13:00:00.754Z,17
2022-12-31T13:05:03.526Z,17
2022-12-31T13:10:00.652Z,17
2022-12-31T13:15:00.925Z,17
2022-12-31T13:20:00.647Z,17
2022-12-31T13:25:00.666Z,17
2022-12-31T13:30:00.860Z,17
2022-12-31T13:35:00.661Z,17
2022-12-31T13:40:00.733Z,17
2022-12-31T13:45:00.833Z,17
2022-12-31T13:50:00.713Z,17
2022-12-31T13:55:00.616Z,16.58
2022-12-31T14:00:00.961Z,16.54
2022-12-31T14:05:00.682Z,16.54
2022-12-31T14:10:00.990Z,16.54
2022-12-31T14:15:00.847Z,16.54
2022-12-31T14:20:00.780Z,16.38
2022-12-31T14:25:00.930Z,16.38
2022-12-31T14:30:00.781Z,16.38
2022-12-31T14:35:00.672Z,16.38
2022-12-31T14:40:00.698Z,16.03
2022-12-31T14:45:01.462Z,16.03
2022-12-31T14:50:02.039Z,16.03
2022-12-31T14:55:00.955Z,15.74
2022-12-31T15:00:00.916Z,15.74
2022-12-31T15:05:00.626Z,15.5
2022-12-31T15:10:00.743Z,15.5
2022-12-31T15:15:00.915Z,15.5
2022-12-31T15:20:00.745Z,15.5
2022-12-31T15:25:00.778Z,15.5
2022-12-31T15:30:00.862Z,15.5
2022-12-31T15:35:00.765Z,15.5
2022-12-31T15:40:00.623Z,15.5
2022-12-31T15:45:00.923Z,15.5
2022-12-31T15:50:00.762Z,15.5
2022-12-31T15:55:00.686Z,15.12
2022-12-31T16:00:00.855Z,15.12
2022-12-31T16:05:00.650Z,15.12
2022-12-31T16:10:00.775Z,15.12
2022-12-31T16:15:00.984Z,14.62
2022-12-31T16:20:00.640Z,14.62
2022-12-31T16:30:00.807Z,14.62
2022-12-31T16:35:00.336Z,14.62
2022-12-31T16:40:00.415Z,14.62
2022-12-31T16:45:00.639Z,14.62
2022-12-31T16:50:00.352Z,14.42
2022-12-31T16:55:00.391Z,14.42
2022-12-31T17:00:00.498Z,14.42
2022-12-31T17:05:03.285Z,14.42
2022-12-31T17:10:00.362Z,14.42
2022-12-31T17:15:00.518Z,14.42
2022-12-31T17:20:00.362Z,14.42
2022-12-31T17:25:00.393Z,14.42
2022-12-31T17:30:00.497Z,14.42
2022-12-31T17:35:00.480Z,14.42
2022-12-31T17:40:24.553Z,14.42
2022-12-31T17:45:00.771Z,14.53
2022-12-31T17:50:00.393Z,14.53
2022-12-31T17:55:00.434Z,14.53
2022-12-31T18:00:00.626Z,14.53
2022-12-31T18:05:00.406Z,14.53
2022-12-31T18:10:00.469Z,14.53
2022-12-31T18:15:00.652Z,14.53
2022-12-31T18:20:05.252Z,14.53
2022-12-31T18:25:00.522Z,14.53
2022-12-31T18:30:04.872Z,14.64
2022-12-31T18:35:00.570Z,14.64
2022-12-31T18:40:00.391Z,14.39
2022-12-31T18:45:00.650Z,14.39
2022-12-31T18:50:00.388Z,14.39
2022-12-31T18:55:00.526Z,14.14
2022-12-31T19:00:00.510Z,14.14
2022-12-31T19:05:04.394Z,14.14
2022-12-31T19:10:00.400Z,14.14
2022-12-31T19:15:00.824Z,13.63
2022-12-31T19:20:00.405Z,13.63
2022-12-31T19:25:00.437Z,13.63
2022-12-31T19:30:00.491Z,13.63
2022-12-31T19:35:00.610Z,13.63
2022-12-31T19:40:00.366Z,13.27
2022-12-31T19:45:00.545Z,13.27
2022-12-31T19:50:00.429Z,13.27
2022-12-31T19:55:00.604Z,13.06
2022-12-31T20:00:00.630Z,13.06
2022-12-31T20:10:00.497Z,13.06
2022-12-31T20:15:00.639Z,13.06
2022-12-31T20:20:00.385Z,13.06
2022-12-31T20:25:00.504Z,12.56
2022-12-31T20:30:00.682Z,12.51
2022-12-31T20:35:00.362Z,12.51
2022-12-31T20:40:00.397Z,12.51
2022-12-31T20:45:00.602Z,12.51
2022-12-31T20:55:00.548Z,12.05
2022-12-31T21:00:00.379Z,12.05
2022-12-31T21:05:03.535Z,12.05
2022-12-31T21:10:00.532Z,12.05
2022-12-31T21:15:00.674Z,12.05
2022-12-31T21:20:00.359Z,12.59
2022-12-31T21:25:00.509Z,13.26
2022-12-31T21:30:19.894Z,13.26
2022-12-31T21:35:40.415Z,13.26
2022-12-31T21:40:00.506Z,13.26
2022-12-31T21:45:00.383Z,13.64
2022-12-31T21:50:00.336Z,13.64
2022-12-31T21:55:00.624Z,13.64
2022-12-31T22:00:31.818Z,13.64
2022-12-31T22:05:05.666Z,13.64
2022-12-31T22:10:00.730Z,13.64
2022-12-31T22:15:14.695Z,13.64
2022-12-31T22:20:25.709Z,13.64
2022-12-31T22:25:00.549Z,13.96
2022-12-31T22:30:00.357Z,13.96
2022-12-31T22:35:00.399Z,14.17
2022-12-31T22:40:00.365Z,14.17
2022-12-31T22:50:00.325Z,14.67
2022-12-31T22:55:00.451Z,14.67
2022-12-31T23:00:00.769Z,14.67
2022-12-31T23:05:15.499Z,14.67
2022-12-31T23:10:00.629Z,14.8
2022-12-31T23:15:00.567Z,14.8
2022-12-31T23:20:00.420Z,14.67
2022-12-31T23:25:00.312Z,14.67
2022-12-31T23:30:00.484Z,14.29
2022-12-31T23:35:04.566Z,14.29
2022-12-31T23:40:00.345Z,14.29
2022-12-31T23:45:00.507Z,14.29
2022-12-31T23:50:00.319Z,14.29
2022-12-31T23:55:00.403Z,14.17
